TAF KGWO
KGWO 072323Z 0800/0824 11003KT P6SM OVC020 FM081400 03003KT P6SM SCT250=
METAR KGWO
WC KGWO
WS KGWO
WV KGWO